Terminal Aerodrome Forecast
Issued by NWS

Home | Current Version | Previous Version | Text Only | Print | Product List | Glossary On
Versions: 1 2 3 4 5 6 7 8 9 10 11 12 13
525
FTUS43 KJKL 231150
TAFSJS
TAF
KSJS 231150Z 2312/2412 20006KT P6SM BKN025
      TEMPO 2312/2314 BKN035
     FM231800 21009G17KT P6SM VCTS BKN035CB BKN200
     FM232300 21008G16KT 2SM SHRA BR VCTS OVC015CB
     FM240300 29005KT 2SM SHRA BR OVC008=

USA.gov is the U.S. government's official web portal to all federal, state and local government web resources and services.